Time;durP1;ratioP1;P1;durP2;ratioP2;P2;SDS_P1;SDS_P2;PMS_P1;PMS_P2;Temp;Humidity;BMP_temperature;BMP_pressure;BME280_temperature;BME280_humidity;BME280_pressure;Samples;Min_cycle;Max_cycle;Signal;HPM_P1;HPM_P2
2023/04/03 00:00:24;;;;;;;2.33;0.80;;;;;;;3.03;55.73;103449.03;5058879;28;20101;-67
2023/04/03 00:02:50;;;;;;;4.07;1.10;;;;;;;2.98;56.26;103451.06;5077256;28;20028;-67
2023/04/03 00:05:17;;;;;;;4.30;1.42;;;;;;;2.88;56.92;103444.53;5076911;28;20028;-68
2023/04/03 00:07:42;;;;;;;2.17;0.90;;;;;;;2.85;56.87;103452.69;5058833;28;20081;-67
2023/04/03 00:10:08;;;;;;;3.67;1.08;;;;;;;2.75;57.06;103445.22;5042252;28;20048;-68
2023/04/03 00:12:34;;;;;;;3.50;0.95;;;;;;;2.62;56.84;103436.19;5075744;28;20025;-68
2023/04/03 00:14:59;;;;;;;3.58;0.95;;;;;;;2.61;57.49;103439.78;5084175;28;20024;-68
2023/04/03 00:17:25;;;;;;;2.55;1.17;;;;;;;2.62;57.91;103444.19;5064513;28;20108;-68
2023/04/03 00:19:50;;;;;;;3.00;1.20;;;;;;;2.57;57.67;103446.22;5060157;28;20028;-67
2023/04/03 00:22:16;;;;;;;3.42;1.15;;;;;;;2.48;57.84;103452.84;5060665;28;20020;-68
2023/04/03 00:24:41;;;;;;;4.18;1.00;;;;;;;2.48;58.23;103460.84;5058435;28;20051;-68
2023/04/03 00:27:07;;;;;;;3.22;0.98;;;;;;;2.46;57.89;103457.41;5057631;28;20020;-68
2023/04/03 00:29:32;;;;;;;2.72;1.10;;;;;;;2.42;58.42;103460.28;5076528;28;20029;-68
2023/04/03 00:31:58;;;;;;;4.38;1.00;;;;;;;2.34;58.34;103468.69;5057966;28;20100;-68
2023/04/03 00:34:23;;;;;;;3.92;1.17;;;;;;;2.32;58.67;103470.56;5076070;28;20052;-67
2023/04/03 00:36:49;;;;;;;3.40;1.10;;;;;;;2.15;58.98;103450.16;5041316;28;20036;-68
2023/04/03 00:39:14;;;;;;;3.88;0.90;;;;;;;2.28;58.74;103467.19;5077539;28;20114;-67
2023/04/03 00:41:40;;;;;;;3.75;1.20;;;;;;;2.27;58.41;103470.78;5077668;28;20078;-67
2023/04/03 00:44:42;;;;;;;1.63;1.05;;;;;;;2.26;59.09;103469.09;5059287;28;20136;-67
2023/04/03 00:47:14;;;;;;;3.45;1.10;;;;;;;2.22;58.72;103461.34;5058151;28;20568;-68
2023/04/03 00:49:41;;;;;;;3.17;1.08;;;;;;;2.22;58.90;103462.22;5084035;28;20036;-68
2023/04/03 00:52:13;;;;;;;3.78;1.02;;;;;;;2.20;59.12;103477.38;5083466;28;20020;-67
2023/04/03 00:54:40;;;;;;;2.75;0.80;;;;;;;2.23;58.64;103474.56;5075399;28;20056;-68
2023/04/03 00:57:08;;;;;;;2.70;0.90;;;;;;;2.25;58.68;103475.34;5072231;28;20032;-68
2023/04/03 00:59:40;;;;;;;4.72;0.95;;;;;;;2.21;58.87;103468.44;5056696;28;20032;-68
2023/04/03 01:02:05;;;;;;;3.22;1.13;;;;;;;2.30;58.98;103469.78;5058985;28;20078;-68
2023/04/03 01:04:36;;;;;;;4.13;1.25;;;;;;;2.32;59.71;103476.75;5078897;28;20094;-68
2023/04/03 01:07:16;;;;;;;3.55;1.00;;;;;;;2.30;59.40;103475.94;5080486;28;20048;-67
2023/04/03 01:09:44;;;;;;;3.58;1.25;;;;;;;2.28;59.38;103482.28;5064825;28;20020;-67
2023/04/03 01:12:17;;;;;;;3.47;1.05;;;;;;;2.28;59.89;103471.66;5080030;28;20020;-67
2023/04/03 01:14:46;;;;;;;4.70;0.75;;;;;;;2.29;59.25;103474.25;5068165;28;20043;-67
2023/04/03 01:17:40;;;;;;;3.33;1.00;;;;;;;2.33;59.26;103474.94;5090125;28;20331;-67
2023/04/03 01:20:36;;;;;;;1.35;0.75;;;;;;;2.34;59.30;103471.34;5080794;28;20096;-67
2023/04/03 01:23:10;;;;;;;2.95;1.08;;;;;;;2.31;59.36;103472.34;5081366;28;20028;-67
2023/04/03 01:25:38;;;;;;;2.60;0.77;;;;;;;2.31;59.34;103474.16;5061763;28;20411;-67
2023/04/03 01:28:05;;;;;;;3.05;0.93;;;;;;;2.33;59.44;103478.47;5061563;28;20081;-67
2023/04/03 01:30:34;;;;;;;3.53;1.00;;;;;;;2.35;59.20;103476.59;5061638;28;20376;-68
2023/04/03 01:32:59;;;;;;;1.73;0.80;;;;;;;2.35;59.65;103481.91;5079765;28;20096;-67
2023/04/03 01:35:25;;;;;;;2.83;1.25;;;;;;;2.32;59.07;103482.06;5061032;28;20145;-68
2023/04/03 01:37:50;;;;;;;4.28;1.00;;;;;;;2.25;59.86;103487.75;5061194;28;20035;-67
2023/04/03 01:40:16;;;;;;;3.45;0.93;;;;;;;2.24;59.56;103483.38;5061909;28;20031;-67
2023/04/03 01:42:41;;;;;;;3.80;0.80;;;;;;;2.25;59.82;103488.63;5061314;28;20032;-67
2023/04/03 01:45:08;;;;;;;5.00;1.40;;;;;;;2.27;59.95;103478.75;5061232;28;20039;-68
2023/04/03 01:47:33;;;;;;;4.65;0.80;;;;;;;2.27;60.00;103484.09;5083664;28;20044;-68
2023/04/03 01:49:59;;;;;;;2.75;0.80;;;;;;;2.25;59.79;103488.63;5085423;28;20044;-67
2023/04/03 01:52:24;;;;;;;4.53;0.80;;;;;;;2.18;60.10;103479.22;5062927;28;20028;-67
2023/04/03 01:54:50;;;;;;;5.38;1.15;;;;;;;2.26;60.08;103495.66;5040565;28;20446;-67
2023/04/03 01:57:16;;;;;;;2.33;0.90;;;;;;;2.31;59.72;103490.09;5061002;28;20069;-67
2023/04/03 01:59:41;;;;;;;1.23;0.93;;;;;;;2.25;59.86;103478.00;5060410;28;20031;-67
2023/04/03 02:02:07;;;;;;;2.33;0.80;;;;;;;2.28;59.87;103493.75;5060544;28;20052;-68
2023/04/03 02:04:32;;;;;;;2.35;0.77;;;;;;;2.09;59.97;103462.00;5043380;28;20036;-67
2023/04/03 02:06:58;;;;;;;3.42;0.88;;;;;;;2.07;59.75;103473.63;5060381;28;20039;-67
2023/04/03 02:09:23;;;;;;;3.67;1.05;;;;;;;2.15;59.99;103497.97;5060520;28;20052;-68
2023/04/03 02:11:49;;;;;;;2.55;0.82;;;;;;;2.16;60.21;103494.41;5043832;28;20112;-68
2023/04/03 02:14:14;;;;;;;6.18;1.00;;;;;;;1.97;60.71;103494.47;5041822;28;20059;-67
2023/04/03 02:16:40;;;;;;;2.90;0.98;;;;;;;1.92;60.63;103504.47;5058394;28;20551;-68
2023/04/03 02:19:06;;;;;;;2.20;0.80;;;;;;;1.85;61.08;103498.63;5056998;28;20033;-68
2023/04/03 02:21:32;;;;;;;2.75;0.90;;;;;;;1.83;60.76;103508.44;5057485;28;20024;-68
2023/04/03 02:23:57;;;;;;;2.60;0.98;;;;;;;1.84;60.71;103507.50;5079025;28;20052;-67
2023/04/03 02:26:23;;;;;;;1.75;0.68;;;;;;;1.74;60.74;103485.00;5061561;28;20063;-67
2023/04/03 02:28:48;;;;;;;2.45;0.80;;;;;;;1.68;61.28;103469.34;5062224;28;20031;-67
2023/04/03 02:31:14;;;;;;;3.42;0.90;;;;;;;1.84;60.96;103503.97;5078990;28;20024;-68
2023/04/03 02:33:39;;;;;;;4.28;1.00;;;;;;;1.84;60.90;103504.84;5060084;28;20096;-67
2023/04/03 02:36:06;;;;;;;4.22;1.02;;;;;;;1.78;60.91;103510.44;5044239;28;20479;-68
2023/04/03 02:38:32;;;;;;;2.75;0.80;;;;;;;1.77;61.05;103507.88;5077458;28;20475;-68
2023/04/03 02:41:05;;;;;;;2.13;1.10;;;;;;;1.75;60.46;103518.56;5060418;28;20111;-67
2023/04/03 02:43:30;;;;;;;3.03;0.80;;;;;;;1.67;60.84;103512.78;5060240;28;20099;-68
2023/04/03 02:45:56;;;;;;;4.15;1.08;;;;;;;1.58;60.89;103497.28;5084178;28;20044;-68
2023/04/03 02:48:22;;;;;;;3.20;0.93;;;;;;;1.66;61.24;103516.38;5069520;28;20035;-67
2023/04/03 02:50:48;;;;;;;3.05;0.90;;;;;;;1.54;61.24;103519.59;5060608;28;20016;-67
2023/04/03 02:53:13;;;;;;;4.45;0.85;;;;;;;1.49;61.64;103518.94;5039091;28;20039;-67
2023/04/03 02:55:39;;;;;;;3.28;0.70;;;;;;;1.49;61.48;103518.94;5059907;28;20059;-68
2023/04/03 02:58:04;;;;;;;1.10;0.60;;;;;;;1.46;61.67;103522.63;5078796;28;20036;-68
2023/04/03 03:00:30;;;;;;;3.05;0.80;;;;;;;1.44;61.83;103536.91;5078227;28;20041;-67
2023/04/03 03:02:55;;;;;;;4.15;0.75;;;;;;;1.40;61.53;103529.09;5060390;28;20048;-68
2023/04/03 03:05:21;;;;;;;2.83;0.95;;;;;;;1.28;61.93;103513.72;5060250;28;20024;-67
2023/04/03 03:07:47;;;;;;;3.83;1.02;;;;;;;1.37;61.64;103531.88;5078028;28;20116;-68
2023/04/03 03:10:12;;;;;;;1.42;0.68;;;;;;;1.28;62.02;103511.09;5044295;28;20435;-68
2023/04/03 03:12:38;;;;;;;3.78;1.00;;;;;;;1.31;61.98;103531.31;5060453;28;20494;-67
2023/04/03 03:15:04;;;;;;;2.85;0.88;;;;;;;1.28;62.00;103527.00;5078382;28;20040;-68
2023/04/03 03:17:30;;;;;;;4.30;1.00;;;;;;;1.26;61.68;103528.00;5060491;28;20029;-68
2023/04/03 03:19:56;;;;;;;3.97;0.90;;;;;;;1.21;62.38;103522.91;5060701;28;20036;-67
2023/04/03 03:22:21;;;;;;;3.17;1.15;;;;;;;1.21;62.24;103536.19;5060095;28;20064;-67
2023/04/03 03:24:46;;;;;;;3.22;0.95;;;;;;;1.23;61.94;103539.63;5058398;28;20395;-67
2023/04/03 03:27:12;;;;;;;2.60;0.70;;;;;;;1.23;62.35;103528.16;5077842;28;20455;-67
2023/04/03 03:29:37;;;;;;;2.20;0.80;;;;;;;1.14;62.48;103530.28;5027197;28;20279;-67
2023/04/03 03:32:03;;;;;;;3.45;1.00;;;;;;;1.06;62.77;103521.84;5078247;28;20092;-68
2023/04/03 03:34:29;;;;;;;4.35;0.90;;;;;;;1.04;62.64;103526.34;5059973;28;20021;-67
2023/04/03 03:36:55;;;;;;;3.50;1.00;;;;;;;0.96;62.84;103523.19;5060078;28;20032;-67
2023/04/03 03:39:20;;;;;;;2.33;0.65;;;;;;;0.91;62.99;103536.63;5059429;28;20028;-67
2023/04/03 03:41:46;;;;;;;3.88;1.05;;;;;;;0.88;63.42;103539.44;5026742;28;20031;-67
2023/04/03 03:44:11;;;;;;;5.53;1.00;;;;;;;0.89;63.36;103542.94;5082680;28;20028;-67
2023/04/03 03:46:37;;;;;;;2.38;0.60;;;;;;;0.89;63.30;103535.88;5064671;28;20444;-67
2023/04/03 03:49:02;;;;;;;2.85;0.80;;;;;;;0.92;63.35;103534.84;5059649;28;20387;-68
2023/04/03 03:51:28;;;;;;;5.82;0.90;;;;;;;0.92;63.29;103543.66;5060651;28;20090;-68
2023/04/03 03:53:53;;;;;;;12.18;1.13;;;;;;;0.89;63.44;103540.28;5059193;28;20031;-67
2023/04/03 03:56:20;;;;;;;2.42;1.00;;;;;;;0.78;63.34;103524.00;5059285;28;20032;-68
2023/04/03 03:58:45;;;;;;;3.90;0.70;;;;;;;0.75;63.53;103537.41;5043586;28;20028;-67
2023/04/03 04:01:10;;;;;;;4.05;0.80;;;;;;;0.73;63.76;103536.59;5043536;28;20040;-66
2023/04/03 04:03:36;;;;;;;3.20;0.90;;;;;;;0.70;63.77;103533.16;5042748;28;20479;-66
2023/04/03 04:06:02;;;;;;;4.45;0.90;;;;;;;0.73;63.92;103539.25;5077304;28;20036;-67
2023/04/03 04:08:27;;;;;;;2.33;0.73;;;;;;;0.67;64.10;103543.91;5059464;28;20060;-66
2023/04/03 04:10:53;;;;;;;3.15;0.95;;;;;;;0.75;64.05;103542.69;5059322;28;20066;-67
2023/04/03 04:13:18;;;;;;;2.45;0.77;;;;;;;0.77;63.82;103547.00;5059847;28;20481;-66
2023/04/03 04:15:44;;;;;;;2.70;0.93;;;;;;;0.78;63.67;103546.06;5059828;28;20063;-67
2023/04/03 04:18:09;;;;;;;2.42;0.80;;;;;;;0.60;63.90;103520.41;5077140;28;20033;-66
2023/04/03 04:20:35;;;;;;;4.00;0.85;;;;;;;0.69;64.22;103546.47;5042525;28;20028;-67
2023/04/03 04:23:01;;;;;;;2.53;1.05;;;;;;;0.50;64.39;103532.28;5077801;28;20036;-67
2023/04/03 04:25:26;;;;;;;5.15;1.55;;;;;;;0.54;64.57;103557.75;5077598;28;20045;-66
2023/04/03 04:27:51;;;;;;;5.03;1.35;;;;;;;0.44;64.31;103538.75;5059270;28;20027;-67
2023/04/03 04:30:17;;;;;;;8.10;1.58;;;;;;;0.55;64.55;103559.47;5059996;28;20040;-66
2023/04/03 04:32:42;;;;;;;3.97;1.50;;;;;;;0.47;64.73;103554.50;5059590;28;20035;-66
2023/04/03 04:35:08;;;;;;;2.95;1.50;;;;;;;0.52;64.72;103556.94;5076999;28;20032;-66
2023/04/03 04:37:34;;;;;;;6.57;1.42;;;;;;;0.55;64.63;103560.31;5085127;28;20472;-66
2023/04/03 04:40:00;;;;;;;4.65;1.27;;;;;;;0.59;64.55;103559.25;5072111;28;20033;-66
2023/04/03 04:42:25;;;;;;;3.38;1.10;;;;;;;0.65;64.62;103563.44;5062372;28;20353;-66
2023/04/03 04:44:51;;;;;;;4.32;1.38;;;;;;;0.66;64.25;103568.69;5078965;28;20024;-66
2023/04/03 04:47:16;;;;;;;2.97;1.30;;;;;;;0.69;64.53;103562.38;5045786;28;20116;-66
2023/04/03 04:49:41;;;;;;;4.63;1.25;;;;;;;0.96;64.25;103562.06;5060439;28;20031;-66
2023/04/03 04:52:07;;;;;;;3.80;1.40;;;;;;;1.59;62.66;103557.38;5077509;28;20043;-66
2023/04/03 04:54:33;;;;;;;3.33;1.25;;;;;;;2.17;62.03;103554.56;5079382;28;20024;-67
2023/04/03 04:56:59;;;;;;;5.32;1.40;;;;;;;2.61;59.87;103550.56;5081341;28;20028;-66
2023/04/03 04:59:25;;;;;;;2.08;1.00;;;;;;;3.09;58.44;103559.56;5045012;28;20031;-66
2023/04/03 05:01:50;;;;;;;5.55;1.52;;;;;;;3.22;58.23;103557.97;5061901;28;20058;-66
2023/04/03 05:04:16;;;;;;;3.53;1.30;;;;;;;3.23;58.06;103557.00;5044898;28;20021;-66
2023/04/03 05:06:41;;;;;;;4.18;1.30;;;;;;;3.60;57.43;103544.34;5078798;28;20056;-66
2023/04/03 05:09:07;;;;;;;6.80;1.27;;;;;;;4.18;55.84;103554.31;5079876;28;20096;-66
2023/04/03 05:11:32;;;;;;;3.85;1.10;;;;;;;4.62;54.74;103554.34;5061738;28;20021;-66
2023/04/03 05:13:58;;;;;;;2.65;1.05;;;;;;;4.70;54.99;103557.41;5061444;28;20040;-66
2023/04/03 05:16:23;;;;;;;4.43;1.20;;;;;;;5.28;53.96;103557.41;5044683;28;20418;-66
2023/04/03 05:18:49;;;;;;;2.90;1.00;;;;;;;5.86;52.64;103557.22;5061141;28;20484;-67
2023/04/03 05:21:14;;;;;;;4.80;1.50;;;;;;;5.84;51.78;103539.56;5078954;28;20040;-66
2023/04/03 05:23:40;;;;;;;2.70;1.27;;;;;;;5.85;51.50;103557.28;5045264;28;20032;-67
2023/04/03 05:26:05;;;;;;;4.97;1.73;;;;;;;6.43;50.47;103558.78;5081377;28;20371;-66
2023/04/03 05:28:31;;;;;;;6.07;1.40;;;;;;;7.04;49.23;103554.53;5081918;28;20039;-66
2023/04/03 05:30:58;;;;;;;3.22;1.27;;;;;;;7.52;48.00;103565.38;5065983;28;20092;-66
2023/04/03 05:33:25;;;;;;;2.88;1.38;;;;;;;7.57;47.38;103566.88;5066168;28;20538;-66
2023/04/03 05:35:51;;;;;;;4.22;1.45;;;;;;;6.17;48.67;103575.75;5083476;28;20114;-66
2023/04/03 05:38:17;;;;;;;5.75;1.45;;;;;;;4.85;51.66;103555.59;5065745;28;20033;-66
2023/04/03 05:40:42;;;;;;;5.22;1.40;;;;;;;3.99;55.03;103567.84;5062328;28;20032;-66
2023/04/03 05:43:08;;;;;;;4.65;1.40;;;;;;;3.59;56.83;103563.91;5081286;28;20552;-66
2023/04/03 05:45:33;;;;;;;2.78;1.25;;;;;;;3.58;57.72;103563.06;5061604;28;20036;-66
2023/04/03 05:47:58;;;;;;;4.75;1.23;;;;;;;3.49;57.98;103568.91;5078510;28;20025;-67
2023/04/03 05:50:24;;;;;;;3.80;1.35;;;;;;;3.60;58.22;103563.81;5063950;28;20032;-66
2023/04/03 05:52:54;;;;;;;3.60;1.45;;;;;;;3.64;58.27;103561.84;5083057;28;20024;-66
2023/04/03 05:55:19;;;;;;;5.22;1.60;;;;;;;3.81;58.25;103559.13;5044362;28;20025;-66
2023/04/03 05:57:45;;;;;;;4.78;1.38;;;;;;;3.90;58.17;103549.72;5048190;28;20052;-66
2023/04/03 06:00:15;;;;;;;2.88;1.40;;;;;;;3.98;58.58;103561.66;5064624;28;20028;-67
2023/04/03 06:02:41;;;;;;;5.82;1.33;;;;;;;3.94;58.55;103546.81;5065518;28;20055;-67
2023/04/03 06:05:08;;;;;;;5.45;1.50;;;;;;;3.99;58.26;103547.38;5046305;28;20104;-69
2023/04/03 06:07:33;;;;;;;4.45;1.23;;;;;;;4.05;58.16;103548.84;5046425;28;20074;-65
2023/04/03 06:09:59;;;;;;;3.70;1.35;;;;;;;4.21;57.88;103549.66;5029682;28;20096;-67
2023/04/03 06:12:25;;;;;;;3.90;1.35;;;;;;;4.44;57.58;103553.66;5065225;28;20028;-67
2023/04/03 06:14:52;;;;;;;3.10;1.40;;;;;;;4.54;56.13;103548.63;5015554;28;20036;-67
2023/04/03 06:17:18;;;;;;;3.08;1.88;;;;;;;4.46;56.36;103546.41;5070752;28;20032;-67
2023/04/03 06:19:44;;;;;;;6.22;1.45;;;;;;;4.63;55.86;103540.03;5030249;28;20063;-67
2023/04/03 06:22:11;;;;;;;6.13;1.50;;;;;;;4.75;55.41;103554.47;5067837;28;20492;-66
2023/04/03 06:24:37;;;;;;;4.93;1.50;;;;;;;4.92;55.25;103554.28;5083816;28;20020;-66
2023/04/03 06:27:02;;;;;;;5.70;1.33;;;;;;;5.09;54.63;103571.91;5065776;28;20552;-67
2023/04/03 06:29:28;;;;;;;5.85;1.20;;;;;;;5.25;54.55;103565.63;5040117;28;20037;-67
2023/04/03 06:31:53;;;;;;;3.08;1.27;;;;;;;5.28;54.10;103570.78;5044963;28;20029;-67
2023/04/03 06:34:18;;;;;;;5.03;1.25;;;;;;;5.06;54.29;103544.56;5064633;28;20033;-67
2023/04/03 06:36:45;;;;;;;3.75;1.30;;;;;;;5.07;54.31;103557.81;5065980;28;20084;-68
2023/04/03 06:39:15;;;;;;;2.50;1.08;;;;;;;5.14;54.02;103553.81;5048362;28;20368;-66
2023/04/03 06:41:41;;;;;;;9.52;1.25;;;;;;;5.52;53.40;103579.88;5048190;28;20464;-67
2023/04/03 06:44:10;;;;;;;6.10;1.30;;;;;;;5.57;52.67;103583.13;5047271;28;20124;-65
2023/04/03 06:46:37;;;;;;;4.95;1.00;;;;;;;5.61;51.69;103573.97;5065443;28;20039;-66
2023/04/03 06:49:03;;;;;;;4.47;1.73;;;;;;;5.75;52.08;103572.22;5063332;28;20021;-69
2023/04/03 06:51:30;;;;;;;9.73;1.75;;;;;;;5.65;53.27;103572.81;5047389;28;20108;-69
2023/04/03 06:53:57;;;;;;;7.22;1.75;;;;;;;5.50;53.82;103579.16;5048030;28;20033;-68
2023/04/03 06:56:25;;;;;;;6.00;1.92;;;;;;;5.70;53.55;103585.03;5065400;28;20032;-68
2023/04/03 06:58:51;;;;;;;8.05;2.20;;;;;;;5.68;53.36;103571.75;5045332;28;20040;-68
2023/04/03 07:01:19;;;;;;;5.18;1.70;;;;;;;5.62;54.00;103586.34;5081709;28;20363;-67
2023/04/03 07:03:46;;;;;;;8.82;1.70;;;;;;;5.72;53.50;103591.09;5084070;28;20188;-68
2023/04/03 07:06:12;;;;;;;6.20;1.65;;;;;;;5.72;53.23;103583.09;5066431;28;20024;-69
2023/04/03 07:08:38;;;;;;;6.28;1.60;;;;;;;5.78;52.40;103585.38;5085573;28;20105;-68
2023/04/03 07:11:05;;;;;;;6.82;1.67;;;;;;;5.96;52.60;103583.34;5066182;28;20036;-69
2023/04/03 07:13:31;;;;;;;4.50;1.48;;;;;;;6.04;52.03;103584.56;5083578;28;20488;-68
2023/04/03 07:15:56;;;;;;;8.30;1.40;;;;;;;6.10;51.70;103584.16;5061266;28;20227;-70
2023/04/03 07:18:22;;;;;;;6.72;1.83;;;;;;;6.24;50.98;103585.06;5059333;28;20036;-68
2023/04/03 07:20:47;;;;;;;3.72;1.30;;;;;;;6.22;50.73;103586.97;5059480;28;20024;-68
2023/04/03 07:23:13;;;;;;;5.97;1.48;;;;;;;6.40;50.49;103591.09;5055883;28;20503;-69
2023/04/03 07:25:46;;;;;;;5.85;1.00;;;;;;;6.67;49.12;103587.50;5036494;28;20061;-69
2023/04/03 07:28:13;;;;;;;7.93;1.08;;;;;;;6.82;47.98;103595.34;5037034;28;20174;-69
2023/04/03 07:30:50;;;;;;;5.57;0.80;;;;;;;6.95;46.93;103589.97;5036760;28;20037;-69
2023/04/03 07:33:18;;;;;;;5.72;1.10;;;;;;;7.21;47.09;103584.59;5039149;28;20055;-69
2023/04/03 07:35:45;;;;;;;10.57;1.20;;;;;;;7.07;48.12;103583.75;5040920;28;20089;-69
2023/04/03 07:38:11;;;;;;;8.18;1.60;;;;;;;6.83;48.88;103586.34;5040252;28;20148;-68
2023/04/03 07:40:38;;;;;;;8.35;1.45;;;;;;;6.52;49.61;103582.25;5039902;28;20056;-68
2023/04/03 07:43:04;;;;;;;4.75;1.30;;;;;;;6.41;49.82;103584.78;5039686;28;20398;-69
2023/04/03 07:45:31;;;;;;;3.33;1.30;;;;;;;6.55;50.09;103581.16;5032915;28;20380;-69
2023/04/03 07:47:56;;;;;;;5.25;1.58;;;;;;;6.36;49.95;103565.53;5036604;28;20040;-69
2023/04/03 07:50:22;;;;;;;5.90;1.17;;;;;;;6.12;51.82;103568.00;5040135;28;20033;-69
2023/04/03 07:52:48;;;;;;;4.45;1.38;;;;;;;6.01;51.64;103581.22;5040174;28;20029;-69
2023/04/03 07:55:14;;;;;;;6.60;1.42;;;;;;;6.04;51.78;103581.88;5038622;28;20099;-69
2023/04/03 07:57:40;;;;;;;2.25;1.30;;;;;;;6.19;52.12;103584.50;5036084;28;20048;-69
2023/04/03 08:00:06;;;;;;;3.72;1.40;;;;;;;6.13;53.31;103588.44;5038644;28;20100;-69
2023/04/03 08:02:31;;;;;;;4.53;1.42;;;;;;;5.88;53.95;103597.19;5065925;28;20044;-69
2023/04/03 08:04:58;;;;;;;2.83;1.50;;;;;;;5.74;55.20;103583.88;5049832;28;20014;-69
2023/04/03 08:07:23;;;;;;;3.70;1.60;;;;;;;6.00;54.90;103591.06;5066356;28;20031;-69
2023/04/03 08:09:49;;;;;;;5.70;1.35;;;;;;;6.26;54.15;103591.19;5044106;28;20112;-69
2023/04/03 08:12:15;;;;;;;6.07;1.20;;;;;;;6.45;52.50;103591.63;5038351;28;20033;-69
2023/04/03 08:14:40;;;;;;;5.78;1.40;;;;;;;6.38;52.80;103594.81;5038927;28;20104;-68
2023/04/03 08:17:09;;;;;;;4.43;1.40;;;;;;;6.23;53.84;103596.72;5041786;28;20040;-69
2023/04/03 08:19:35;;;;;;;8.40;1.85;;;;;;;6.15;54.31;103593.69;5037041;28;20018;-69
2023/04/03 08:22:02;;;;;;;7.20;1.50;;;;;;;5.87;54.66;103592.81;5038039;28;20030;-69
2023/04/03 08:24:28;;;;;;;3.55;1.48;;;;;;;5.94;54.82;103594.16;5038273;28;20480;-69
2023/04/03 08:26:54;;;;;;;4.13;1.67;;;;;;;5.82;55.24;103593.09;5052624;28;20053;-69
2023/04/03 08:29:21;;;;;;;9.57;2.33;;;;;;;5.83;55.62;103593.97;5037803;28;20022;-69
2023/04/03 08:31:47;;;;;;;5.82;1.50;;;;;;;5.85;54.49;103584.88;5035469;28;20104;-69
2023/04/03 08:34:13;;;;;;;6.82;1.30;;;;;;;5.85;54.14;103592.03;5038044;28;20025;-69
2023/04/03 08:36:38;;;;;;;7.68;1.77;;;;;;;5.75;53.77;103567.72;5049278;28;20021;-68
2023/04/03 08:39:04;;;;;;;6.57;1.70;;;;;;;5.71;53.44;103574.22;5063339;28;20068;-69
2023/04/03 08:41:33;;;;;;;6.57;1.52;;;;;;;6.11;53.61;103591.22;5037057;28;20033;-68
2023/04/03 08:44:18;;;;;;;4.75;1.67;;;;;;;6.13;52.89;103595.63;5035849;28;20443;-69
2023/04/03 08:46:52;;;;;;;2.70;1.10;;;;;;;6.17;50.71;103591.78;5036267;28;20039;-69
2023/04/03 08:49:50;;;;;;;3.03;1.27;;;;;;;6.21;50.89;103588.78;5037418;28;20028;-69
2023/04/03 08:52:41;;;;;;;4.80;1.30;;;;;;;6.26;51.09;103589.34;5037394;28;20025;-69
2023/04/03 08:55:40;;;;;;;4.53;1.15;;;;;;;6.47;50.71;103594.22;5036208;28;20037;-69
2023/04/03 08:58:11;;;;;;;6.25;1.20;;;;;;;6.61;50.28;103590.59;5023926;28;20037;-70
2023/04/03 09:00:50;;;;;;;8.13;1.45;;;;;;;6.59;50.01;103596.91;5037918;28;20112;-68
2023/04/03 09:03:19;;;;;;;3.60;0.88;;;;;;;6.44;49.26;103573.88;5037315;28;20033;-69
2023/04/03 09:06:03;;;;;;;7.28;1.40;;;;;;;6.39;48.49;103596.53;5038566;28;20445;-69
2023/04/03 09:08:32;;;;;;;8.45;1.20;;;;;;;6.33;47.88;103582.63;5038325;28;20477;-69
2023/04/03 09:11:28;;;;;;;5.07;1.38;;;;;;;6.43;48.11;103582.88;5038233;28;20033;-69
2023/04/03 09:13:56;;;;;;;5.97;0.98;;;;;;;6.55;48.38;103584.69;5036709;28;20057;-69
2023/04/03 09:16:43;;;;;;;3.83;1.27;;;;;;;6.54;47.27;103580.31;5036702;28;20057;-69
2023/04/03 09:19:15;;;;;;;6.65;1.10;;;;;;;6.64;47.63;103579.69;5038343;28;20113;-69
2023/04/03 09:21:42;;;;;;;3.63;0.98;;;;;;;6.66;47.88;103583.97;5036752;28;20033;-69
2023/04/03 09:24:11;;;;;;;9.13;1.05;;;;;;;6.67;47.98;103582.16;5040600;28;20025;-69
2023/04/03 09:26:59;;;;;;;3.17;1.02;;;;;;;6.72;48.52;103577.31;5039833;28;20038;-69
2023/04/03 09:29:26;;;;;;;4.78;1.05;;;;;;;6.66;47.48;103578.63;5040061;28;20036;-69
2023/04/03 09:32:09;;;;;;;3.15;1.00;;;;;;;6.74;47.38;103567.38;5038428;28;20029;-69
2023/04/03 09:34:41;;;;;;;10.98;1.20;;;;;;;6.78;47.09;103571.56;5048465;28;20020;-69
2023/04/03 09:37:08;;;;;;;4.13;1.08;;;;;;;6.69;46.48;103565.03;5055665;28;20116;-69
2023/04/03 09:39:55;;;;;;;2.35;0.80;;;;;;;6.79;46.11;103566.13;5052128;28;20028;-67
2023/04/03 09:42:23;;;;;;;8.27;1.23;;;;;;;6.86;44.90;103563.88;5046339;28;20679;-69
2023/04/03 09:45:06;;;;;;;5.72;1.50;;;;;;;7.09;44.76;103566.75;5062245;28;20025;-69
2023/04/03 09:47:33;;;;;;;6.50;1.15;;;;;;;7.11;44.09;103562.13;5065879;28;20051;-68
2023/04/03 09:50:21;;;;;;;3.95;1.00;;;;;;;7.11;42.87;103562.97;5063872;28;20028;-69
2023/04/03 09:52:51;;;;;;;4.05;0.93;;;;;;;7.23;42.75;103550.56;5061464;28;20035;-69
2023/04/03 09:55:16;;;;;;;7.20;1.10;;;;;;;7.33;42.64;103553.44;5068284;28;20039;-68
2023/04/03 09:57:43;;;;;;;4.07;0.80;;;;;;;7.43;42.45;103547.28;5063434;28;20021;-68
2023/04/03 10:00:38;;;;;;;7.10;1.00;;;;;;;7.53;44.24;103552.84;5065739;28;20102;-67
2023/04/03 10:03:05;;;;;;;5.75;0.93;;;;;;;7.28;44.84;103540.34;5060009;28;20039;-67
2023/04/03 10:05:40;;;;;;;4.30;1.00;;;;;;;7.30;44.50;103552.69;5074686;28;20029;-66
2023/04/03 10:08:15;;;;;;;3.50;1.00;;;;;;;7.23;45.22;103550.56;5063841;28;20021;-69
2023/04/03 10:11:04;;;;;;;3.67;0.80;;;;;;;7.33;46.29;103543.56;5065567;28;20021;-66
2023/04/03 10:13:29;;;;;;;7.13;0.73;;;;;;;7.22;46.88;103543.50;5066346;28;20029;-67
2023/04/03 10:16:13;;;;;;;3.75;0.70;;;;;;;7.13;46.88;103552.19;5074687;28;20025;-67
2023/04/03 10:18:42;;;;;;;2.95;0.68;;;;;;;7.15;48.36;103536.84;5055634;28;20037;-67
2023/04/03 10:21:27;;;;;;;2.95;0.60;;;;;;;7.19;47.80;103533.84;5060698;28;20021;-67
2023/04/03 10:24:26;;;;;;;3.25;0.60;;;;;;;7.43;49.00;103538.41;5058696;28;20087;-67
2023/04/03 10:27:11;;;;;;;2.10;0.70;;;;;;;7.30;47.99;103531.25;5077370;28;20051;-68
2023/04/03 10:29:48;;;;;;;1.67;0.60;;;;;;;7.43;47.63;103523.19;5061226;28;20625;-68
2023/04/03 10:32:26;;;;;;;3.65;0.70;;;;;;;7.42;47.63;103524.16;5060998;28;20508;-67
2023/04/03 10:35:31;;;;;;;1.67;0.73;;;;;;;7.48;47.82;103521.03;5074378;28;20016;-67
2023/04/03 10:38:04;;;;;;;2.20;0.60;;;;;;;7.47;45.96;103521.13;5068816;28;20039;-68
2023/04/03 10:40:39;;;;;;;3.72;0.60;;;;;;;7.49;46.73;103490.59;5059723;28;20039;-69
2023/04/03 10:43:05;;;;;;;;;;;;;;;7.63;46.51;103515.50;5079699;28;20043;-69
2023/04/03 10:45:30;;;;;;;3.03;0.57;;;;;;;7.66;48.41;103504.56;5084579;28;19916;-69
2023/04/03 10:48:07;;;;;;;3.13;0.70;;;;;;;7.27;49.46;103510.03;5083058;28;20040;-68
2023/04/03 10:51:00;;;;;;;2.63;1.00;;;;;;;7.17;49.91;103500.97;5061037;28;20036;-68
2023/04/03 10:53:58;;;;;;;2.75;0.80;;;;;;;7.10;50.79;103504.19;5061163;28;20021;-68
2023/04/03 10:56:41;;;;;;;1.35;0.57;;;;;;;7.20;51.15;103507.94;5016851;28;20037;-68
2023/04/03 10:59:32;;;;;;;1.95;0.55;;;;;;;7.07;49.66;103500.75;5040563;28;20025;-67
2023/04/03 11:02:21;;;;;;;2.45;0.68;;;;;;;7.04;48.92;103490.28;5039657;28;20029;-68
2023/04/03 11:04:52;;;;;;;3.60;0.82;;;;;;;7.08;48.10;103498.94;5059409;28;20052;-68
2023/04/03 11:07:24;;;;;;;2.58;0.60;;;;;;;7.04;49.50;103500.97;5060254;28;20055;-68
2023/04/03 11:09:59;;;;;;;1.63;0.47;;;;;;;6.99;48.13;103487.09;5042621;28;20036;-68
2023/04/03 11:12:41;;;;;;;3.75;0.50;;;;;;;7.04;47.92;103492.94;5059612;28;20025;-68
2023/04/03 11:15:13;;;;;;;2.63;0.70;;;;;;;7.10;47.38;103493.50;5041473;28;20044;-68
2023/04/03 11:17:46;;;;;;;1.83;0.70;;;;;;;7.20;46.63;103471.28;5057588;28;20249;-68
2023/04/03 11:20:20;;;;;;;1.92;0.50;;;;;;;7.50;45.41;103484.25;5056095;28;20052;-68
2023/04/03 11:23:21;;;;;;;3.22;0.52;;;;;;;7.44;44.92;103487.38;5036632;28;20112;-68
2023/04/03 11:25:52;;;;;;;1.88;0.50;;;;;;;7.43;42.91;103485.69;5032543;28;20045;-68
2023/04/03 11:28:18;;;;;;;1.67;0.50;;;;;;;7.43;43.99;103474.97;5038737;28;20116;-68
2023/04/03 11:31:06;;;;;;;1.80;0.47;;;;;;;7.56;43.39;103482.94;5039286;28;20053;-68
2023/04/03 11:33:48;;;;;;;1.23;0.30;;;;;;;7.51;42.19;103475.22;5037118;28;20032;-68
2023/04/03 11:36:43;;;;;;;1.52;0.32;;;;;;;7.83;41.38;103474.66;5055725;28;20017;-67
2023/04/03 11:39:28;;;;;;;2.10;0.50;;;;;;;7.74;41.76;103470.00;5055122;28;20220;-68
2023/04/03 11:41:53;;;;;;;;;;;;;;;7.81;41.69;103467.72;5056233;28;20036;-68
2023/04/03 11:44:33;;;;;;;4.55;0.57;;;;;;;7.74;41.62;103462.81;5035713;28;19963;-68